sensor_id;sensor_type;location;lat;lon;timestamp;P1;durP1;ratioP1;P2;durP2;ratioP2
41263;SDS011;26998;48.714;9.414;2022-12-10T00:01:57;71.30;;;39.43;;
41263;SDS011;26998;48.714;9.414;2022-12-10T00:04:23;69.83;;;36.20;;
41263;SDS011;26998;48.714;9.414;2022-12-10T00:06:50;66.40;;;35.57;;
41263;SDS011;26998;48.714;9.414;2022-12-10T00:09:18;71.30;;;37.33;;
41263;SDS011;26998;48.714;9.414;2022-12-10T00:11:46;78.93;;;39.90;;
41263;SDS011;26998;48.714;9.414;2022-12-10T00:14:13;71.70;;;39.80;;
41263;SDS011;26998;48.714;9.414;2022-12-10T00:16:40;71.27;;;38.90;;
41263;SDS011;26998;48.714;9.414;2022-12-10T00:19:07;71.97;;;37.83;;
41263;SDS011;26998;48.714;9.414;2022-12-10T00:21:34;69.27;;;36.10;;
41263;SDS011;26998;48.714;9.414;2022-12-10T00:24:02;66.17;;;36.87;;
41263;SDS011;26998;48.714;9.414;2022-12-10T00:26:31;60.87;;;33.73;;
41263;SDS011;26998;48.714;9.414;2022-12-10T00:28:59;61.93;;;32.37;;
41263;SDS011;26998;48.714;9.414;2022-12-10T00:31:28;59.37;;;33.90;;
41263;SDS011;26998;48.714;9.414;2022-12-10T00:33:57;54.93;;;31.50;;
41263;SDS011;26998;48.714;9.414;2022-12-10T00:36:26;52.43;;;29.10;;
41263;SDS011;26998;48.714;9.414;2022-12-10T00:39:19;53.03;;;29.23;;
41263;SDS011;26998;48.714;9.414;2022-12-10T00:41:47;50.77;;;27.33;;
41263;SDS011;26998;48.714;9.414;2022-12-10T00:44:14;51.07;;;29.93;;
41263;SDS011;26998;48.714;9.414;2022-12-10T00:46:41;50.87;;;30.83;;
41263;SDS011;26998;48.714;9.414;2022-12-10T00:49:08;52.10;;;28.80;;
41263;SDS011;26998;48.714;9.414;2022-12-10T00:51:35;51.90;;;29.50;;
41263;SDS011;26998;48.714;9.414;2022-12-10T00:54:02;50.03;;;29.23;;
41263;SDS011;26998;48.714;9.414;2022-12-10T00:56:30;53.60;;;29.00;;
41263;SDS011;26998;48.714;9.414;2022-12-10T00:58:58;55.40;;;29.77;;
41263;SDS011;26998;48.714;9.414;2022-12-10T01:01:30;55.93;;;30.93;;
41263;SDS011;26998;48.714;9.414;2022-12-10T01:04:05;58.70;;;29.13;;
41263;SDS011;26998;48.714;9.414;2022-12-10T01:06:35;51.97;;;29.30;;
41263;SDS011;26998;48.714;9.414;2022-12-10T01:09:06;52.17;;;27.53;;
41263;SDS011;26998;48.714;9.414;2022-12-10T01:11:36;48.17;;;28.40;;
41263;SDS011;26998;48.714;9.414;2022-12-10T01:14:04;56.83;;;30.20;;
41263;SDS011;26998;48.714;9.414;2022-12-10T01:16:32;57.30;;;31.13;;
41263;SDS011;26998;48.714;9.414;2022-12-10T01:18:59;55.80;;;29.13;;
41263;SDS011;26998;48.714;9.414;2022-12-10T01:21:26;58.03;;;30.00;;
41263;SDS011;26998;48.714;9.414;2022-12-10T01:23:54;53.83;;;29.97;;
41263;SDS011;26998;48.714;9.414;2022-12-10T01:26:23;55.57;;;30.43;;
41263;SDS011;26998;48.714;9.414;2022-12-10T01:28:51;55.33;;;28.90;;
41263;SDS011;26998;48.714;9.414;2022-12-10T01:31:20;51.00;;;29.57;;
41263;SDS011;26998;48.714;9.414;2022-12-10T01:33:48;55.03;;;30.80;;
41263;SDS011;26998;48.714;9.414;2022-12-10T01:36:17;54.77;;;29.97;;
41263;SDS011;26998;48.714;9.414;2022-12-10T01:38:52;53.53;;;28.40;;
41263;SDS011;26998;48.714;9.414;2022-12-10T01:41:22;50.80;;;29.63;;
41263;SDS011;26998;48.714;9.414;2022-12-10T01:46:21;52.30;;;29.70;;
41263;SDS011;26998;48.714;9.414;2022-12-10T01:48:49;59.60;;;31.23;;
41263;SDS011;26998;48.714;9.414;2022-12-10T01:51:16;58.57;;;31.90;;
41263;SDS011;26998;48.714;9.414;2022-12-10T01:53:44;54.10;;;29.60;;
41263;SDS011;26998;48.714;9.414;2022-12-10T01:56:12;54.43;;;29.53;;
41263;SDS011;26998;48.714;9.414;2022-12-10T01:58:41;58.03;;;31.63;;
41263;SDS011;26998;48.714;9.414;2022-12-10T02:01:10;52.73;;;29.20;;
41263;SDS011;26998;48.714;9.414;2022-12-10T02:04:01;53.33;;;29.37;;
41263;SDS011;26998;48.714;9.414;2022-12-10T02:12:36;51.95;;;28.95;;
41263;SDS011;26998;48.714;9.414;2022-12-10T02:15:16;51.30;;;28.07;;
41263;SDS011;26998;48.714;9.414;2022-12-10T02:17:46;49.83;;;27.60;;
41263;SDS011;26998;48.714;9.414;2022-12-10T02:20:20;50.73;;;28.27;;
41263;SDS011;26998;48.714;9.414;2022-12-10T02:25:25;51.83;;;29.30;;
41263;SDS011;26998;48.714;9.414;2022-12-10T02:28:17;54.77;;;29.23;;
41263;SDS011;26998;48.714;9.414;2022-12-10T02:30:52;51.87;;;29.23;;
41263;SDS011;26998;48.714;9.414;2022-12-10T02:33:20;50.43;;;28.33;;
41263;SDS011;26998;48.714;9.414;2022-12-10T02:35:49;51.30;;;28.03;;
41263;SDS011;26998;48.714;9.414;2022-12-10T02:38:26;53.27;;;29.63;;
41263;SDS011;26998;48.714;9.414;2022-12-10T02:41:00;55.70;;;30.13;;
41263;SDS011;26998;48.714;9.414;2022-12-10T02:43:31;49.67;;;29.83;;
41263;SDS011;26998;48.714;9.414;2022-12-10T02:45:59;53.83;;;29.93;;
41263;SDS011;26998;48.714;9.414;2022-12-10T02:48:30;52.33;;;28.50;;
41263;SDS011;26998;48.714;9.414;2022-12-10T02:50:59;45.17;;;27.13;;
41263;SDS011;26998;48.714;9.414;2022-12-10T02:53:26;54.90;;;30.33;;
41263;SDS011;26998;48.714;9.414;2022-12-10T02:56:08;47.93;;;28.33;;
41263;SDS011;26998;48.714;9.414;2022-12-10T03:04:18;46.40;;;27.10;;
41263;SDS011;26998;48.714;9.414;2022-12-10T03:06:53;48.43;;;26.60;;
41263;SDS011;26998;48.714;9.414;2022-12-10T03:09:26;48.20;;;26.73;;
41263;SDS011;26998;48.714;9.414;2022-12-10T03:12:07;46.63;;;25.00;;
41263;SDS011;26998;48.714;9.414;2022-12-10T03:14:42;44.53;;;24.67;;
41263;SDS011;26998;48.714;9.414;2022-12-10T03:17:10;42.73;;;23.57;;
41263;SDS011;26998;48.714;9.414;2022-12-10T03:19:42;43.93;;;26.23;;
41263;SDS011;26998;48.714;9.414;2022-12-10T03:22:12;38.70;;;22.90;;
41263;SDS011;26998;48.714;9.414;2022-12-10T03:24:42;46.80;;;26.13;;
41263;SDS011;26998;48.714;9.414;2022-12-10T03:27:10;41.57;;;24.93;;
41263;SDS011;26998;48.714;9.414;2022-12-10T03:29:44;43.47;;;24.87;;
41263;SDS011;26998;48.714;9.414;2022-12-10T03:32:14;38.97;;;22.80;;
41263;SDS011;26998;48.714;9.414;2022-12-10T03:34:42;41.93;;;23.97;;
41263;SDS011;26998;48.714;9.414;2022-12-10T03:37:11;40.50;;;24.47;;
41263;SDS011;26998;48.714;9.414;2022-12-10T03:39:38;43.10;;;24.00;;
41263;SDS011;26998;48.714;9.414;2022-12-10T03:42:05;44.77;;;25.93;;
41263;SDS011;26998;48.714;9.414;2022-12-10T03:44:33;39.07;;;22.53;;
41263;SDS011;26998;48.714;9.414;2022-12-10T03:47:03;40.23;;;22.63;;
41263;SDS011;26998;48.714;9.414;2022-12-10T03:49:31;38.80;;;23.37;;
41263;SDS011;26998;48.714;9.414;2022-12-10T03:51:58;41.93;;;24.23;;
41263;SDS011;26998;48.714;9.414;2022-12-10T03:54:25;39.87;;;23.63;;
41263;SDS011;26998;48.714;9.414;2022-12-10T03:56:52;39.10;;;23.30;;
41263;SDS011;26998;48.714;9.414;2022-12-10T03:59:18;39.63;;;23.03;;
41263;SDS011;26998;48.714;9.414;2022-12-10T04:01:45;35.43;;;22.47;;
41263;SDS011;26998;48.714;9.414;2022-12-10T04:04:12;37.33;;;22.30;;
41263;SDS011;26998;48.714;9.414;2022-12-10T04:06:41;40.67;;;24.07;;
41263;SDS011;26998;48.714;9.414;2022-12-10T04:09:09;44.13;;;23.83;;
41263;SDS011;26998;48.714;9.414;2022-12-10T04:11:37;39.80;;;24.47;;
41263;SDS011;26998;48.714;9.414;2022-12-10T04:14:04;41.00;;;23.47;;
41263;SDS011;26998;48.714;9.414;2022-12-10T04:16:30;38.43;;;22.30;;
41263;SDS011;26998;48.714;9.414;2022-12-10T04:19:02;33.97;;;20.97;;
41263;SDS011;26998;48.714;9.414;2022-12-10T04:21:31;38.03;;;22.20;;
41263;SDS011;26998;48.714;9.414;2022-12-10T04:23:59;37.17;;;21.87;;
41263;SDS011;26998;48.714;9.414;2022-12-10T04:26:25;41.93;;;23.13;;
41263;SDS011;26998;48.714;9.414;2022-12-10T04:28:51;36.17;;;22.20;;
41263;SDS011;26998;48.714;9.414;2022-12-10T04:31:18;36.43;;;21.77;;
41263;SDS011;26998;48.714;9.414;2022-12-10T04:33:44;42.33;;;24.47;;
41263;SDS011;26998;48.714;9.414;2022-12-10T04:36:10;41.50;;;23.00;;
41263;SDS011;26998;48.714;9.414;2022-12-10T04:38:37;32.03;;;20.90;;
41263;SDS011;26998;48.714;9.414;2022-12-10T04:41:03;38.63;;;22.90;;
41263;SDS011;26998;48.714;9.414;2022-12-10T04:43:29;38.37;;;21.73;;
41263;SDS011;26998;48.714;9.414;2022-12-10T04:45:56;38.23;;;22.20;;
41263;SDS011;26998;48.714;9.414;2022-12-10T04:48:22;37.10;;;21.90;;
41263;SDS011;26998;48.714;9.414;2022-12-10T04:50:48;36.10;;;21.90;;
41263;SDS011;26998;48.714;9.414;2022-12-10T04:53:15;38.93;;;23.63;;
41263;SDS011;26998;48.714;9.414;2022-12-10T04:55:41;34.77;;;21.93;;
41263;SDS011;26998;48.714;9.414;2022-12-10T04:58:07;36.43;;;22.07;;
41263;SDS011;26998;48.714;9.414;2022-12-10T05:00:34;34.47;;;20.97;;
41263;SDS011;26998;48.714;9.414;2022-12-10T05:03:00;42.77;;;23.90;;
41263;SDS011;26998;48.714;9.414;2022-12-10T05:05:26;37.03;;;21.60;;
41263;SDS011;26998;48.714;9.414;2022-12-10T05:07:53;41.70;;;23.33;;
41263;SDS011;26998;48.714;9.414;2022-12-10T05:10:19;39.37;;;22.97;;
41263;SDS011;26998;48.714;9.414;2022-12-10T05:12:45;40.33;;;23.37;;
41263;SDS011;26998;48.714;9.414;2022-12-10T05:15:12;37.93;;;22.80;;
41263;SDS011;26998;48.714;9.414;2022-12-10T05:17:38;38.73;;;23.50;;
41263;SDS011;26998;48.714;9.414;2022-12-10T05:20:04;38.00;;;22.40;;
41263;SDS011;26998;48.714;9.414;2022-12-10T05:22:32;42.13;;;23.03;;
41263;SDS011;26998;48.714;9.414;2022-12-10T05:24:58;43.73;;;23.23;;
41263;SDS011;26998;48.714;9.414;2022-12-10T05:27:25;38.57;;;21.93;;
41263;SDS011;26998;48.714;9.414;2022-12-10T05:29:51;37.17;;;22.83;;
41263;SDS011;26998;48.714;9.414;2022-12-10T05:32:17;37.27;;;21.00;;
41263;SDS011;26998;48.714;9.414;2022-12-10T05:34:44;38.53;;;23.00;;
41263;SDS011;26998;48.714;9.414;2022-12-10T05:37:10;40.87;;;23.17;;
41263;SDS011;26998;48.714;9.414;2022-12-10T05:39:36;36.63;;;23.23;;
41263;SDS011;26998;48.714;9.414;2022-12-10T05:42:03;37.87;;;22.90;;
41263;SDS011;26998;48.714;9.414;2022-12-10T05:44:29;41.20;;;22.97;;
41263;SDS011;26998;48.714;9.414;2022-12-10T05:46:55;39.17;;;23.07;;
41263;SDS011;26998;48.714;9.414;2022-12-10T05:49:22;40.63;;;22.23;;
41263;SDS011;26998;48.714;9.414;2022-12-10T05:51:48;40.13;;;24.07;;
41263;SDS011;26998;48.714;9.414;2022-12-10T05:54:14;35.50;;;22.03;;
41263;SDS011;26998;48.714;9.414;2022-12-10T05:56:41;41.90;;;24.67;;
41263;SDS011;26998;48.714;9.414;2022-12-10T05:59:07;40.87;;;23.87;;
41263;SDS011;26998;48.714;9.414;2022-12-10T06:01:41;41.27;;;23.73;;
41263;SDS011;26998;48.714;9.414;2022-12-10T06:04:08;42.43;;;23.73;;
41263;SDS011;26998;48.714;9.414;2022-12-10T06:06:36;40.97;;;23.57;;
41263;SDS011;26998;48.714;9.414;2022-12-10T06:09:04;37.43;;;22.63;;
41263;SDS011;26998;48.714;9.414;2022-12-10T06:11:31;40.17;;;23.60;;
41263;SDS011;26998;48.714;9.414;2022-12-10T06:13:58;39.53;;;23.90;;
41263;SDS011;26998;48.714;9.414;2022-12-10T06:16:25;38.53;;;23.60;;
41263;SDS011;26998;48.714;9.414;2022-12-10T06:18:53;39.13;;;23.00;;
41263;SDS011;26998;48.714;9.414;2022-12-10T06:21:21;39.17;;;23.70;;
41263;SDS011;26998;48.714;9.414;2022-12-10T06:23:48;42.00;;;24.03;;
41263;SDS011;26998;48.714;9.414;2022-12-10T06:26:16;44.07;;;24.27;;
41263;SDS011;26998;48.714;9.414;2022-12-10T06:28:45;41.15;;;24.85;;
41263;SDS011;26998;48.714;9.414;2022-12-10T06:31:12;45.57;;;26.53;;
41263;SDS011;26998;48.714;9.414;2022-12-10T06:33:40;43.47;;;25.00;;
41263;SDS011;26998;48.714;9.414;2022-12-10T06:36:07;45.80;;;26.77;;
41263;SDS011;26998;48.714;9.414;2022-12-10T06:38:36;46.33;;;26.10;;
41263;SDS011;26998;48.714;9.414;2022-12-10T06:41:06;43.93;;;25.47;;
41263;SDS011;26998;48.714;9.414;2022-12-10T06:43:34;43.10;;;24.70;;
41263;SDS011;26998;48.714;9.414;2022-12-10T06:46:08;41.10;;;24.33;;
41263;SDS011;26998;48.714;9.414;2022-12-10T06:48:39;43.73;;;25.07;;
41263;SDS011;26998;48.714;9.414;2022-12-10T06:51:05;42.40;;;25.93;;
41263;SDS011;26998;48.714;9.414;2022-12-10T06:53:33;44.93;;;27.07;;
41263;SDS011;26998;48.714;9.414;2022-12-10T06:56:01;43.50;;;25.13;;
41263;SDS011;26998;48.714;9.414;2022-12-10T06:58:29;46.27;;;26.03;;
41263;SDS011;26998;48.714;9.414;2022-12-10T07:01:03;41.53;;;25.53;;
41263;SDS011;26998;48.714;9.414;2022-12-10T07:03:31;41.47;;;24.83;;
41263;SDS011;26998;48.714;9.414;2022-12-10T07:05:58;47.30;;;26.30;;
41263;SDS011;26998;48.714;9.414;2022-12-10T07:08:29;48.40;;;26.10;;
41263;SDS011;26998;48.714;9.414;2022-12-10T07:10:56;45.43;;;27.47;;
41263;SDS011;26998;48.714;9.414;2022-12-10T07:13:23;48.87;;;26.33;;
41263;SDS011;26998;48.714;9.414;2022-12-10T07:15:56;43.37;;;25.63;;
41263;SDS011;26998;48.714;9.414;2022-12-10T07:18:22;44.47;;;26.30;;
41263;SDS011;26998;48.714;9.414;2022-12-10T07:20:49;46.87;;;26.03;;
41263;SDS011;26998;48.714;9.414;2022-12-10T07:23:15;46.07;;;25.23;;
41263;SDS011;26998;48.714;9.414;2022-12-10T07:25:41;42.77;;;24.03;;
41263;SDS011;26998;48.714;9.414;2022-12-10T07:28:08;44.03;;;25.30;;
41263;SDS011;26998;48.714;9.414;2022-12-10T07:30:34;47.30;;;27.13;;
41263;SDS011;26998;48.714;9.414;2022-12-10T07:33:00;39.30;;;23.90;;
41263;SDS011;26998;48.714;9.414;2022-12-10T07:35:27;40.43;;;23.97;;
41263;SDS011;26998;48.714;9.414;2022-12-10T07:37:53;45.07;;;24.57;;
41263;SDS011;26998;48.714;9.414;2022-12-10T07:40:20;45.10;;;25.87;;
41263;SDS011;26998;48.714;9.414;2022-12-10T07:42:47;40.33;;;24.63;;
41263;SDS011;26998;48.714;9.414;2022-12-10T07:45:14;40.90;;;24.40;;
41263;SDS011;26998;48.714;9.414;2022-12-10T07:47:40;43.67;;;25.07;;
41263;SDS011;26998;48.714;9.414;2022-12-10T07:50:06;42.57;;;23.43;;
41263;SDS011;26998;48.714;9.414;2022-12-10T07:52:34;41.20;;;24.83;;
41263;SDS011;26998;48.714;9.414;2022-12-10T07:55:00;49.10;;;27.43;;
41263;SDS011;26998;48.714;9.414;2022-12-10T07:57:28;42.87;;;26.17;;
41263;SDS011;26998;48.714;9.414;2022-12-10T07:59:55;38.90;;;24.30;;
41263;SDS011;26998;48.714;9.414;2022-12-10T08:02:21;44.77;;;25.47;;
41263;SDS011;26998;48.714;9.414;2022-12-10T08:04:48;42.63;;;24.57;;
41263;SDS011;26998;48.714;9.414;2022-12-10T08:07:14;41.37;;;25.13;;
41263;SDS011;26998;48.714;9.414;2022-12-10T08:09:41;40.27;;;23.97;;
41263;SDS011;26998;48.714;9.414;2022-12-10T08:12:07;42.00;;;25.90;;
41263;SDS011;26998;48.714;9.414;2022-12-10T08:14:33;44.97;;;26.37;;
41263;SDS011;26998;48.714;9.414;2022-12-10T08:17:00;40.57;;;23.83;;
41263;SDS011;26998;48.714;9.414;2022-12-10T08:19:26;40.53;;;24.70;;
41263;SDS011;26998;48.714;9.414;2022-12-10T08:21:57;40.85;;;24.80;;
41263;SDS011;26998;48.714;9.414;2022-12-10T08:24:23;44.40;;;24.17;;
41263;SDS011;26998;48.714;9.414;2022-12-10T08:26:49;43.37;;;25.93;;
41263;SDS011;26998;48.714;9.414;2022-12-10T08:29:16;45.03;;;25.33;;
41263;SDS011;26998;48.714;9.414;2022-12-10T08:31:42;46.37;;;25.90;;
41263;SDS011;26998;48.714;9.414;2022-12-10T08:34:10;40.43;;;24.27;;
41263;SDS011;26998;48.714;9.414;2022-12-10T08:36:39;39.28;;;24.33;;
41263;SDS011;26998;48.714;9.414;2022-12-10T08:39:05;36.80;;;22.37;;
41263;SDS011;26998;48.714;9.414;2022-12-10T08:41:32;41.07;;;24.20;;
41263;SDS011;26998;48.714;9.414;2022-12-10T08:43:58;42.93;;;25.27;;
41263;SDS011;26998;48.714;9.414;2022-12-10T08:46:24;41.10;;;24.70;;
41263;SDS011;26998;48.714;9.414;2022-12-10T08:48:51;43.87;;;25.23;;
41263;SDS011;26998;48.714;9.414;2022-12-10T08:51:18;42.40;;;24.30;;
41263;SDS011;26998;48.714;9.414;2022-12-10T08:53:45;39.97;;;23.60;;
41263;SDS011;26998;48.714;9.414;2022-12-10T08:56:11;35.90;;;22.00;;
41263;SDS011;26998;48.714;9.414;2022-12-10T08:58:39;42.43;;;24.67;;
41263;SDS011;26998;48.714;9.414;2022-12-10T09:01:10;43.47;;;24.70;;
41263;SDS011;26998;48.714;9.414;2022-12-10T09:03:38;39.73;;;23.50;;
41263;SDS011;26998;48.714;9.414;2022-12-10T09:06:06;40.40;;;24.20;;
41263;SDS011;26998;48.714;9.414;2022-12-10T09:08:38;39.33;;;25.33;;
41263;SDS011;26998;48.714;9.414;2022-12-10T09:11:09;40.60;;;24.33;;
41263;SDS011;26998;48.714;9.414;2022-12-10T09:13:39;38.80;;;22.80;;
41263;SDS011;26998;48.714;9.414;2022-12-10T09:16:05;41.10;;;23.80;;
41263;SDS011;26998;48.714;9.414;2022-12-10T09:18:32;38.13;;;23.07;;
41263;SDS011;26998;48.714;9.414;2022-12-10T09:20:59;35.97;;;23.43;;
41263;SDS011;26998;48.714;9.414;2022-12-10T09:23:25;38.63;;;22.30;;
41263;SDS011;26998;48.714;9.414;2022-12-10T09:25:51;40.17;;;22.73;;
41263;SDS011;26998;48.714;9.414;2022-12-10T09:28:18;38.70;;;23.23;;
41263;SDS011;26998;48.714;9.414;2022-12-10T09:30:44;37.13;;;23.07;;
41263;SDS011;26998;48.714;9.414;2022-12-10T09:33:11;39.57;;;24.23;;
41263;SDS011;26998;48.714;9.414;2022-12-10T09:35:40;38.17;;;23.20;;
41263;SDS011;26998;48.714;9.414;2022-12-10T09:38:07;34.03;;;21.90;;
41263;SDS011;26998;48.714;9.414;2022-12-10T09:40:39;40.37;;;22.43;;
41263;SDS011;26998;48.714;9.414;2022-12-10T09:45:49;37.10;;;22.67;;
41263;SDS011;26998;48.714;9.414;2022-12-10T09:51:34;36.13;;;22.03;;
41263;SDS011;26998;48.714;9.414;2022-12-10T09:54:16;34.70;;;21.73;;
41263;SDS011;26998;48.714;9.414;2022-12-10T09:56:48;36.83;;;21.47;;
41263;SDS011;26998;48.714;9.414;2022-12-10T09:59:23;39.17;;;21.47;;
41263;SDS011;26998;48.714;9.414;2022-12-10T10:02:03;36.10;;;21.00;;
41263;SDS011;26998;48.714;9.414;2022-12-10T10:04:45;35.13;;;21.33;;
41263;SDS011;26998;48.714;9.414;2022-12-10T10:07:26;35.63;;;22.27;;
41263;SDS011;26998;48.714;9.414;2022-12-10T10:09:59;34.63;;;21.13;;
41263;SDS011;26998;48.714;9.414;2022-12-10T10:12:30;34.73;;;21.73;;
41263;SDS011;26998;48.714;9.414;2022-12-10T10:14:57;34.50;;;20.93;;
41263;SDS011;26998;48.714;9.414;2022-12-10T10:17:33;35.00;;;20.87;;
41263;SDS011;26998;48.714;9.414;2022-12-10T10:20:02;39.87;;;22.00;;
41263;SDS011;26998;48.714;9.414;2022-12-10T10:22:29;34.83;;;21.30;;
41263;SDS011;26998;48.714;9.414;2022-12-10T10:24:56;35.87;;;21.67;;
41263;SDS011;26998;48.714;9.414;2022-12-10T10:27:23;39.97;;;23.80;;
41263;SDS011;26998;48.714;9.414;2022-12-10T10:29:54;32.28;;;21.27;;
41263;SDS011;26998;48.714;9.414;2022-12-10T10:35:02;37.97;;;22.00;;
41263;SDS011;26998;48.714;9.414;2022-12-10T10:37:31;35.43;;;20.00;;
41263;SDS011;26998;48.714;9.414;2022-12-10T10:40:21;37.73;;;21.13;;
41263;SDS011;26998;48.714;9.414;2022-12-10T10:42:51;33.27;;;20.27;;
41263;SDS011;26998;48.714;9.414;2022-12-10T10:50:54;37.57;;;22.17;;
41263;SDS011;26998;48.714;9.414;2022-12-10T10:53:22;38.63;;;21.40;;
41263;SDS011;26998;48.714;9.414;2022-12-10T10:56:05;32.40;;;19.70;;
41263;SDS011;26998;48.714;9.414;2022-12-10T11:01:19;32.20;;;19.53;;
41263;SDS011;26998;48.714;9.414;2022-12-10T11:04:03;35.47;;;20.33;;
41263;SDS011;26998;48.714;9.414;2022-12-10T11:06:30;33.83;;;20.50;;
41263;SDS011;26998;48.714;9.414;2022-12-10T11:08:57;30.03;;;20.13;;
41263;SDS011;26998;48.714;9.414;2022-12-10T11:11:34;36.20;;;21.40;;
41263;SDS011;26998;48.714;9.414;2022-12-10T11:16:50;36.83;;;21.13;;
41263;SDS011;26998;48.714;9.414;2022-12-10T11:19:20;32.23;;;20.57;;
41263;SDS011;26998;48.714;9.414;2022-12-10T11:21:48;33.93;;;20.30;;
41263;SDS011;26998;48.714;9.414;2022-12-10T11:24:16;36.67;;;21.10;;
41263;SDS011;26998;48.714;9.414;2022-12-10T11:26:53;35.77;;;20.77;;
41263;SDS011;26998;48.714;9.414;2022-12-10T11:35:04;32.93;;;20.90;;
41263;SDS011;26998;48.714;9.414;2022-12-10T11:49:00;33.77;;;21.83;;
41263;SDS011;26998;48.714;9.414;2022-12-10T11:51:40;40.93;;;23.13;;
41263;SDS011;26998;48.714;9.414;2022-12-10T11:54:26;35.77;;;21.50;;
41263;SDS011;26998;48.714;9.414;2022-12-10T11:57:06;32.70;;;20.50;;
41263;SDS011;26998;48.714;9.414;2022-12-10T11:59:42;34.27;;;20.57;;
41263;SDS011;26998;48.714;9.414;2022-12-10T12:08:08;35.87;;;22.93;;
41263;SDS011;26998;48.714;9.414;2022-12-10T12:11:05;39.43;;;22.17;;
41263;SDS011;26998;48.714;9.414;2022-12-10T12:14:04;33.60;;;20.10;;
41263;SDS011;26998;48.714;9.414;2022-12-10T12:19:18;32.40;;;19.97;;
41263;SDS011;26998;48.714;9.414;2022-12-10T12:21:48;42.30;;;23.02;;
41263;SDS011;26998;48.714;9.414;2022-12-10T12:24:19;41.83;;;22.93;;
41263;SDS011;26998;48.714;9.414;2022-12-10T12:26:55;37.93;;;21.63;;
41263;SDS011;26998;48.714;9.414;2022-12-10T12:29:37;35.47;;;21.30;;
41263;SDS011;26998;48.714;9.414;2022-12-10T12:32:28;37.38;;;23.05;;
41263;SDS011;26998;48.714;9.414;2022-12-10T12:35:04;38.30;;;22.17;;
41263;SDS011;26998;48.714;9.414;2022-12-10T12:37:48;41.67;;;22.37;;
41263;SDS011;26998;48.714;9.414;2022-12-10T12:40:31;35.03;;;20.53;;
41263;SDS011;26998;48.714;9.414;2022-12-10T12:43:09;32.93;;;18.93;;
41263;SDS011;26998;48.714;9.414;2022-12-10T12:45:44;31.23;;;19.17;;
41263;SDS011;26998;48.714;9.414;2022-12-10T12:48:18;26.67;;;18.23;;
41263;SDS011;26998;48.714;9.414;2022-12-10T12:53:46;33.27;;;17.83;;
41263;SDS011;26998;48.714;9.414;2022-12-10T13:04:13;33.53;;;18.43;;
41263;SDS011;26998;48.714;9.414;2022-12-10T13:06:41;34.07;;;19.73;;
41263;SDS011;26998;48.714;9.414;2022-12-10T13:09:15;33.90;;;20.10;;
41263;SDS011;26998;48.714;9.414;2022-12-10T13:14:31;32.03;;;18.80;;
41263;SDS011;26998;48.714;9.414;2022-12-10T13:19:40;35.97;;;19.20;;
41263;SDS011;26998;48.714;9.414;2022-12-10T13:22:40;34.67;;;19.27;;
41263;SDS011;26998;48.714;9.414;2022-12-10T13:27:56;31.20;;;18.80;;
41263;SDS011;26998;48.714;9.414;2022-12-10T13:30:41;32.70;;;18.70;;
41263;SDS011;26998;48.714;9.414;2022-12-10T13:33:18;35.00;;;20.60;;
41263;SDS011;26998;48.714;9.414;2022-12-10T13:35:56;32.90;;;19.00;;
41263;SDS011;26998;48.714;9.414;2022-12-10T13:38:38;29.53;;;17.60;;
41263;SDS011;26998;48.714;9.414;2022-12-10T13:41:20;29.10;;;17.87;;
41263;SDS011;26998;48.714;9.414;2022-12-10T13:43:57;32.67;;;19.00;;
41263;SDS011;26998;48.714;9.414;2022-12-10T13:48:58;34.97;;;18.73;;
41263;SDS011;26998;48.714;9.414;2022-12-10T13:51:35;32.30;;;20.50;;
41263;SDS011;26998;48.714;9.414;2022-12-10T13:57:27;30.47;;;18.50;;
41263;SDS011;26998;48.714;9.414;2022-12-10T14:00:08;30.17;;;18.00;;
41263;SDS011;26998;48.714;9.414;2022-12-10T14:05:42;29.27;;;18.40;;
41263;SDS011;26998;48.714;9.414;2022-12-10T14:08:18;27.53;;;16.97;;
41263;SDS011;26998;48.714;9.414;2022-12-10T14:10:49;33.30;;;18.67;;
41263;SDS011;26998;48.714;9.414;2022-12-10T14:13:16;37.47;;;20.03;;
41263;SDS011;26998;48.714;9.414;2022-12-10T14:15:51;33.60;;;19.60;;
41263;SDS011;26998;48.714;9.414;2022-12-10T14:18:22;33.07;;;19.27;;
41263;SDS011;26998;48.714;9.414;2022-12-10T14:20:51;32.63;;;19.23;;
41263;SDS011;26998;48.714;9.414;2022-12-10T14:23:29;34.87;;;19.20;;
41263;SDS011;26998;48.714;9.414;2022-12-10T14:25:57;32.90;;;18.77;;
41263;SDS011;26998;48.714;9.414;2022-12-10T14:28:23;33.37;;;19.43;;
41263;SDS011;26998;48.714;9.414;2022-12-10T14:30:50;36.73;;;19.60;;
41263;SDS011;26998;48.714;9.414;2022-12-10T14:33:17;33.33;;;20.33;;
41263;SDS011;26998;48.714;9.414;2022-12-10T14:35:47;33.70;;;19.58;;
41263;SDS011;26998;48.714;9.414;2022-12-10T14:38:19;33.10;;;19.60;;
41263;SDS011;26998;48.714;9.414;2022-12-10T14:40:49;31.47;;;19.97;;
41263;SDS011;26998;48.714;9.414;2022-12-10T14:43:20;30.47;;;19.37;;
41263;SDS011;26998;48.714;9.414;2022-12-10T14:45:59;39.37;;;19.83;;
41263;SDS011;26998;48.714;9.414;2022-12-10T14:48:27;30.53;;;19.20;;
41263;SDS011;26998;48.714;9.414;2022-12-10T14:50:55;33.00;;;18.70;;
41263;SDS011;26998;48.714;9.414;2022-12-10T14:53:28;32.97;;;20.33;;
41263;SDS011;26998;48.714;9.414;2022-12-10T14:56:04;34.00;;;19.13;;
41263;SDS011;26998;48.714;9.414;2022-12-10T15:01:13;33.97;;;19.03;;
41263;SDS011;26998;48.714;9.414;2022-12-10T15:03:45;31.63;;;18.97;;
41263;SDS011;26998;48.714;9.414;2022-12-10T15:06:15;33.90;;;19.40;;
41263;SDS011;26998;48.714;9.414;2022-12-10T15:08:44;37.83;;;21.30;;
41263;SDS011;26998;48.714;9.414;2022-12-10T15:11:19;29.03;;;18.70;;
41263;SDS011;26998;48.714;9.414;2022-12-10T15:13:50;31.40;;;18.90;;
41263;SDS011;26998;48.714;9.414;2022-12-10T15:16:20;32.30;;;18.70;;
41263;SDS011;26998;48.714;9.414;2022-12-10T15:19:13;29.83;;;18.40;;
41263;SDS011;26998;48.714;9.414;2022-12-10T15:21:44;32.57;;;19.20;;
41263;SDS011;26998;48.714;9.414;2022-12-10T15:24:17;33.87;;;19.13;;
41263;SDS011;26998;48.714;9.414;2022-12-10T15:26:44;36.37;;;20.90;;
41263;SDS011;26998;48.714;9.414;2022-12-10T15:32:00;37.60;;;21.07;;
41263;SDS011;26998;48.714;9.414;2022-12-10T15:34:39;35.67;;;19.37;;
41263;SDS011;26998;48.714;9.414;2022-12-10T15:37:14;31.55;;;18.67;;
41263;SDS011;26998;48.714;9.414;2022-12-10T15:39:45;33.23;;;17.60;;
41263;SDS011;26998;48.714;9.414;2022-12-10T15:42:27;30.65;;;18.15;;
41263;SDS011;26998;48.714;9.414;2022-12-10T15:47:44;34.40;;;19.50;;
41263;SDS011;26998;48.714;9.414;2022-12-10T15:50:10;33.43;;;19.40;;
41263;SDS011;26998;48.714;9.414;2022-12-10T15:52:37;33.50;;;19.73;;
41263;SDS011;26998;48.714;9.414;2022-12-10T15:55:04;31.70;;;18.70;;
41263;SDS011;26998;48.714;9.414;2022-12-10T15:57:35;31.30;;;19.43;;
41263;SDS011;26998;48.714;9.414;2022-12-10T16:00:07;34.43;;;19.57;;
41263;SDS011;26998;48.714;9.414;2022-12-10T16:02:47;31.13;;;17.63;;
41263;SDS011;26998;48.714;9.414;2022-12-10T16:05:16;32.57;;;19.33;;
41263;SDS011;26998;48.714;9.414;2022-12-10T16:07:43;30.87;;;18.30;;
41263;SDS011;26998;48.714;9.414;2022-12-10T16:10:11;33.17;;;18.50;;
41263;SDS011;26998;48.714;9.414;2022-12-10T16:12:40;34.27;;;20.40;;
41263;SDS011;26998;48.714;9.414;2022-12-10T16:15:10;33.73;;;19.77;;
41263;SDS011;26998;48.714;9.414;2022-12-10T16:17:42;31.27;;;19.57;;